Flight Track Log - Related Links

Times and Time Zones

All times are in EDT time to prevent confusion due to time zone crossing. See the GLA182 flight status page for this flight to view local times or setup timezone preferences in your user account.

Time Position Orientation Groundspeed Altitude Reporting Facility
EDT Latitude Longitude Course Direction KTS MPH feet Rate Location/Type
Tue 11:09:26 AM 44.3450 -100.3289 247° West 157 181 5,000  Level Minneapolis Center
Tue 11:10:27 AM 44.3422 -100.3953 267° West 164 189 7,000 2,049 Climbing Minneapolis Center
Tue 11:11:29 AM 44.3083 -100.4572 233° Southwest 167 192 9,200 1,984 Climbing Minneapolis Center
Tue 11:12:00 AM 44.0358 -100.6522 217° Southwest  Level Estimated
Tue 11:12:31 AM 44.2703 -100.4981 218° Southwest 172 198 11,100  Level Minneapolis Center
Tue 11:13:00 AM 43.9778 -100.7128 217° Southwest  Level Estimated
Tue 11:13:33 AM 44.2319 -100.5414 219° Southwest 173 199 12,800  Level Minneapolis Center
Tue 11:14:35 AM 44.1911 -100.5828 216° Southwest 177 204 14,400 1,452 Climbing Minneapolis Center
Tue 11:15:37 AM 44.1503 -100.6308 220° Southwest 183 211 15,800 1,306 Climbing Minneapolis Center
Tue 11:16:39 AM 44.1108 -100.6825 223° Southwest 189 217 17,100 1,500 Climbing Minneapolis Center
Tue 11:17:41 AM 44.0650 -100.7486 226° Southwest 193 222 18,900 1,548 Climbing Minneapolis Center
Tue 11:18:43 AM 44.0253 -100.8050 226° Southwest 198 228 20,300 1,306 Climbing Minneapolis Center
Tue 11:19:45 AM 43.9839 -100.8614 224° Southwest 203 234 21,600 1,113 Climbing Minneapolis Center
Tue 11:20:47 AM 43.9397 -100.9186 223° Southwest 210 242 22,600 1,065 Climbing Minneapolis Center
Tue 11:21:49 AM 43.8950 -100.9744 222° Southwest 214 246 23,800 732 Climbing Minneapolis Center
Tue 11:22:50 AM 43.8469 -101.0322 221° Southwest 220 253 24,100 146 Climbing Minneapolis Center
Tue 11:23:52 AM 43.7928 -101.0978 221° Southwest 238 274 24,100  Level Minneapolis Center
Tue 11:24:54 AM 43.7244 -101.1817 222° Southwest 260 299 24,100  Level Minneapolis Center
Tue 11:25:56 AM 43.6672 -101.2553 223° Southwest 271 312 24,100  Level Minneapolis Center
Tue 11:26:58 AM 43.6100 -101.3264 222° Southwest 276 318 24,100  Level Minneapolis Center
Tue 11:28:00 AM 43.5519 -101.3967 221° Southwest 277 319 24,100  Level Minneapolis Center
Tue 11:29:10 AM 43.4850 -101.4867 224° Southwest 279 321 24,100  Level Denver Center
Tue 11:30:12 AM 43.4283 -101.5594 223° Southwest 279 321 24,100  Level Denver Center
Tue 11:31:14 AM 43.3703 -101.6333 223° Southwest 282 325 24,100  Level Denver Center
Tue 11:32:16 AM 43.3147 -101.7083 224° Southwest 280 322 24,100  Level Denver Center
Tue 11:33:18 AM 43.2544 -101.7875 224° Southwest 283 326 24,100  Level Denver Center
Tue 11:34:20 AM 43.1939 -101.8728 226° Southwest 280 322 24,100  Level Denver Center
Tue 11:35:22 AM 43.1417 -101.9450 225° Southwest 279 321 24,100  Level Denver Center
Tue 11:36:24 AM 43.0792 -102.0286 224° Southwest 280 322 24,100  Level Denver Center
Tue 11:37:26 AM 43.0253 -102.0989 224° Southwest 280 322 24,100  Level Denver Center
Tue 11:38:28 AM 42.9642 -102.1833 225° Southwest 278 320 24,100  Level Denver Center
Tue 11:39:30 AM 42.9067 -102.2494 220° Southwest 280 322 24,100  Level Denver Center
Tue 11:40:32 AM 42.8403 -102.3258 220° Southwest 280 322 24,100  Level Denver Center
Tue 11:41:35 AM 42.7825 -102.3903 219° Southwest 280 322 24,100  Level Denver Center
Tue 11:42:37 AM 42.7167 -102.4672 221° Southwest 279 321 24,100  Level Denver Center
Tue 11:43:39 AM 42.6608 -102.5342 221° Southwest 279 321 24,100  Level Denver Center
Tue 11:44:41 AM 42.6047 -102.6008 221° Southwest 279 321 24,100  Level Denver Center
Tue 11:45:43 AM 42.5400 -102.6786 222° Southwest 279 321 24,100  Level Denver Center
Tue 11:46:45 AM 42.4867 -102.7475 224° Southwest 278 320 24,100  Level Denver Center
Tue 11:47:47 AM 42.4256 -102.8289 225° Southwest 277 319 24,100  Level Denver Center
Tue 11:48:49 AM 42.3725 -102.8983 224° Southwest 277 319 24,100  Level Denver Center
Tue 11:49:51 AM 42.3094 -102.9800 224° Southwest 278 320 24,100  Level Denver Center
Tue 11:50:53 AM 42.2567 -103.0492 224° Southwest 278 320 24,100  Level Denver Center
Tue 11:51:55 AM 42.1964 -103.1303 225° Southwest 276 318 24,100  Level Denver Center
Tue 11:52:57 AM 42.1442 -103.1986 224° Southwest 274 315 24,100  Level Denver Center
Tue 11:53:59 AM 42.0806 -103.2744 222° Southwest 273 314 24,100  Level Denver Center
Tue 11:55:01 AM 42.0231 -103.3353 218° Southwest 273 314 24,100  Level Denver Center
Tue 11:56:03 AM 41.9678 -103.3978 220° Southwest 273 314 24,100  Level Denver Center
Tue 11:57:05 AM 41.9003 -103.4686 218° Southwest 273 314 24,100  Level Denver Center
Tue 11:58:07 AM 41.8317 -103.4989 198° South 281 323 24,100  Level Denver Center
Tue 11:59:09 AM 41.7428 -103.5036 182° South 284 327 24,100  Level Denver Center
Tue 12:00:11 PM 41.6681 -103.5150 186° South 282 325 24,100  Level Denver Center
Tue 12:01:13 PM 41.5806 -103.5308 188° South 283 326 24,100  Level Denver Center
Tue 12:02:16 PM 41.5067 -103.5433 187° South 280 322 24,100  Level Denver Center
Tue 12:03:18 PM 41.4189 -103.5564 186° South 282 325 24,100  Level Denver Center
Tue 12:04:20 PM 41.3444 -103.5683 187° South 282 325 24,100 -823 Level Denver Center
Tue 12:05:22 PM 41.2575 -103.5842 188° South 282 325 22,400 -1,548 Descending Denver Center
Tue 12:06:24 PM 41.1839 -103.6000 189° South 280 322 20,900 -1,452 Descending Denver Center
Tue 12:07:26 PM 41.0972 -103.6142 187° South 280 322 19,400 -1,355 Descending Denver Center
Tue 12:08:28 PM 41.0206 -103.6250 186° South 287 330 18,100 -1,355 Descending Denver Center
Tue 12:09:30 PM 40.9303 -103.6361 185° South 288 331 16,600 -968 Descending Denver Center
Tue 12:10:32 PM 40.8500 -103.6436 184° South 285 328 16,100 -242 Descending Denver Center
Tue 12:11:34 PM 40.7697 -103.6517 184° South 286 329 16,100 48 Level Denver Center
Tue 12:12:36 PM 40.6881 -103.6611 185° South 290 334 16,200 48 Climbing Denver Center
Tue 12:13:38 PM 40.6067 -103.6722 186° South 292 336 16,200 -435 Level Denver Center
Tue 12:14:40 PM 40.5431 -103.7369 218° Southwest 294 338 15,300 -1,065 Descending Denver Center
Tue 12:15:42 PM 40.4939 -103.8219 233° Southwest 291 335 14,000 -1,065 Descending Denver Center
Tue 12:16:44 PM 40.4433 -103.8989 229° Southwest 298 343 13,100 -387 Descending Denver Center
Tue 12:17:46 PM 40.3714 -103.9903 224° Southwest 294 338 13,200 48 Climbing Denver Center
Tue 12:18:48 PM 40.3117 -104.0592 221° Southwest 290 334 13,200  Level Denver Center
Tue 12:19:50 PM 40.2486 -104.1342 222° Southwest 289 333 13,200  Level Denver Center
Tue 12:20:52 PM 40.1886 -104.2036 221° Southwest 284 327 13,200  Level Denver Center
Tue 12:21:54 PM 40.1236 -104.2811 222° Southwest 292 336 13,200  Level Denver Center
Tue 12:22:57 PM 40.0656 -104.3539 224° Southwest 291 335 13,200  Level Denver Center
Tue 12:23:58 PM 40.0078 -104.4269 224° Southwest 290 334 13,200 -435 Level Denver Center
Tue 12:25:01 PM 39.9392 -104.4831 212° Southwest 280 322 12,300 -912 Descending Denver Center
Tue 12:26:03 PM 39.8658 -104.4806 179° South 264 304 11,300 -726 Descending Denver Center
Tue 12:27:05 PM 39.7878 -104.4828 181° South 259 298 10,800 -823 Descending Denver Center
Tue 12:28:07 PM 39.7167 -104.4878 183° South 252 290 9,600 -1,113 Descending Denver Center
Tue 12:29:09 PM 39.6550 -104.5122 197° South 240 276 8,500 -726 Descending Denver Center
Tue 12:30:11 PM 39.6578 -104.5911 273° West 206 237 8,100 -387 Descending Denver Center
Tue 12:31:13 PM 39.7092 -104.6211 336° Northwest 204 235 7,700 -774 Descending Denver Center
Tue 12:32:15 PM 39.7694 -104.6411 346° North 211 243 6,500 -968 Descending Denver Center
Tue 12:33:17 PM 39.8208 -104.6422 359° North 185 213 5,700 -532 Descending Denver Center
Tue 12:34:19 PM 39.8556 -104.6428 359° North 156 180 5,400 -290 Descending Denver Center
Tue 12:36:00 PM 39.8500 -104.6667 229° Southwest  Level FlightAware Approximate

Login

Don't have an account? Register now (free) for customized features, flight alerts, and more!